Sakaide Maru — 3EYR6 — position and weather

sailwx.info

Track history (hours):
 
Tides and Currents Weather Stations Pressure Air Temp Water Temp Dewpoint Dewpoint Depression Visibility Wind Speed Wind Dir Waves Ship Positions

Sakaide Maru

Last reported at 2017-May-20 02:09 UTC. Time now 2017-May-30 03:25 UTC.
Position N 34°36' E 134°55'.
Warning: this ship's position is 10 days out of date.

Length 255 m; draft 12.8 m.

Type: Ship. MMSI: 354898000.

Date/timePositionNaut miles runAvg speedWind from/ knotsBaromVisibWave heightAir tempDewpointWater temp
2017-May-20 02:09N 34°36' E 134°55'310.1
2017-May-20 01:49N 34°37' E 134°59'3 8.5
2017-May-20 01:27N 34°37' E 135°02'4 8.0
2017-May-20 01:00N 34°35' E 135°06'3 6.3
2017-May-20 00:30N 34°32' E 135°08'611.3
2017-May-20 00:00N 34°27' E 135°05'510.9
2017-May-19 23:30N 34°22' E 135°02'510.3
2017-May-19 23:00N 34°17' E 134°59'510.2
2017-May-19 22:30N 34°12' E 134°59'4 8.2
2017-May-19 22:00N 34°08' E 134°60'3 6.9
2017-May-19 21:30N 34°05' E 134°59'3 6.1
2017-May-19 21:00N 34°02' E 134°59'4 6.7
2017-May-19 20:28N 33°58' E 134°58'3 6.7
2017-May-19 19:59N 33°55' E 134°58'  
Track history (hours):
 
Tides and Currents Weather Stations Pressure Air Temp Water Temp Dewpoint Dewpoint Depression Visibility Wind Speed Wind Dir Waves Ship Positions

Sakaide Maru

Last reported at 2017-May-20 02:09 UTC. Time now 2017-May-30 03:25 UTC.
Position N 34°36' E 134°55'.
Warning: this ship's position is 10 days out of date.

Length 255 m; draft 12.8 m.

Type: Ship. MMSI: 354898000.

Date/timePositionNaut miles runAvg speedWind from/ knotsBaromVisibWave heightAir tempDewpointWater temp
2017-May-20 02:09N 34°36' E 134°55'310.1
2017-May-20 01:49N 34°37' E 134°59'3 8.5
2017-May-20 01:27N 34°37' E 135°02'4 8.0
2017-May-20 01:00N 34°35' E 135°06'3 6.3
2017-May-20 00:30N 34°32' E 135°08'611.3
2017-May-20 00:00N 34°27' E 135°05'510.9
2017-May-19 23:30N 34°22' E 135°02'510.3
2017-May-19 23:00N 34°17' E 134°59'510.2
2017-May-19 22:30N 34°12' E 134°59'4 8.2
2017-May-19 22:00N 34°08' E 134°60'3 6.9
2017-May-19 21:30N 34°05' E 134°59'3 6.1
2017-May-19 21:00N 34°02' E 134°59'4 6.7
2017-May-19 20:28N 33°58' E 134°58'3 6.7
2017-May-19 19:59N 33°55' E 134°58'  

Dump ship's entire track history